createdAt,value
2023-04-07T00:01:19.013Z,11.45
2023-04-07T00:05:25.705Z,11.88
2023-04-07T00:09:32.389Z,11.75
2023-04-07T00:13:39.023Z,11.23
2023-04-07T00:17:45.806Z,11.85
2023-04-07T00:21:53.640Z,10.57
2023-04-07T00:26:00.956Z,10.45
2023-04-07T00:30:08.118Z,10.27
2023-04-07T00:34:14.797Z,11.55
2023-04-07T00:38:21.720Z,11.70
2023-04-07T00:42:28.407Z,12.00
2023-04-07T00:46:35.205Z,11.85
2023-04-07T00:50:42.144Z,13.38
2023-04-07T00:54:48.927Z,12.85
2023-04-07T00:58:55.921Z,12.70
2023-04-07T01:03:18.304Z,13.80
2023-04-07T01:11:55.559Z,16.00
2023-04-07T01:16:06.265Z,17.10
2023-04-07T01:20:16.521Z,18.25
2023-04-07T01:24:50.878Z,17.58
2023-04-07T01:29:22.123Z,15.90
2023-04-07T01:33:32.635Z,12.15
2023-04-07T01:37:40.916Z,11.05
2023-04-07T01:41:49.149Z,8.98
2023-04-07T01:45:57.633Z,8.18
2023-04-07T01:50:05.479Z,3.38
2023-04-07T01:54:12.236Z,3.60
2023-04-07T01:58:18.908Z,3.58
2023-04-07T02:02:25.810Z,2.60
2023-04-07T02:06:43.207Z,3.03
2023-04-07T02:10:51.562Z,3.28
2023-04-07T02:15:00.781Z,2.50
2023-04-07T02:19:07.755Z,2.75
2023-04-07T02:23:14.596Z,3.65
2023-04-07T02:27:21.363Z,3.30
2023-04-07T02:31:28.029Z,3.25
2023-04-07T02:35:34.687Z,3.53
2023-04-07T02:39:41.569Z,3.70
2023-04-07T02:43:48.356Z,2.30
2023-04-07T02:47:55.080Z,3.28
2023-04-07T02:52:01.795Z,3.08
2023-04-07T02:56:08.702Z,3.80
2023-04-07T03:00:16.501Z,4.30
2023-04-07T03:04:23.339Z,3.67
2023-04-07T03:08:30.388Z,4.05
2023-04-07T03:12:37.019Z,5.55
2023-04-07T03:16:43.701Z,5.13
2023-04-07T03:20:50.535Z,4.97
2023-04-07T03:24:57.211Z,4.88
2023-04-07T03:29:04.277Z,5.25
2023-04-07T03:33:11.133Z,5.13
2023-04-07T03:37:17.826Z,5.50
2023-04-07T03:41:24.783Z,5.30
2023-04-07T03:45:33.266Z,5.60
2023-04-07T03:49:39.996Z,4.97
2023-04-07T03:53:47.165Z,4.95
2023-04-07T03:57:53.874Z,5.20
2023-04-07T04:02:00.706Z,6.25
2023-04-07T04:06:07.484Z,4.82
2023-04-07T04:10:14.200Z,5.10
2023-04-07T04:14:20.936Z,5.57
2023-04-07T04:18:27.597Z,4.30
2023-04-07T04:22:34.674Z,4.32
2023-04-07T04:26:41.391Z,5.63
2023-04-07T04:30:48.306Z,6.15
2023-04-07T04:34:54.976Z,4.40
2023-04-07T04:39:01.625Z,4.97
2023-04-07T04:43:09.563Z,6.30
2023-04-07T04:47:16.337Z,5.50
2023-04-07T04:51:23.142Z,4.85
2023-04-07T04:55:29.808Z,5.47
2023-04-07T04:59:36.458Z,6.18
2023-04-07T05:03:43.323Z,4.93
2023-04-07T05:07:50.136Z,6.05
2023-04-07T05:11:57.897Z,5.00
2023-04-07T05:16:05.368Z,5.97
2023-04-07T05:20:12.353Z,6.55
2023-04-07T05:24:19.108Z,5.55
2023-04-07T05:28:25.952Z,6.80
2023-04-07T05:32:32.676Z,5.65
2023-04-07T05:36:39.401Z,7.25
2023-04-07T05:40:47.165Z,4.88
2023-04-07T05:44:53.885Z,6.22
2023-04-07T05:49:07.072Z,5.72
2023-04-07T05:53:20.053Z,5.32
2023-04-07T05:57:28.372Z,6.35
2023-04-07T06:01:35.039Z,5.13
2023-04-07T06:05:43.730Z,4.47
2023-04-07T06:09:50.496Z,3.45
2023-04-07T06:13:57.130Z,3.97
2023-04-07T06:18:03.882Z,4.20
2023-04-07T06:22:11.096Z,5.00
2023-04-07T06:26:17.793Z,4.40
2023-04-07T06:30:24.549Z,3.85
2023-04-07T06:34:31.217Z,4.70
2023-04-07T06:38:38.383Z,4.95
2023-04-07T06:42:45.658Z,5.13
2023-04-07T06:46:53.322Z,6.00
2023-04-07T06:50:59.943Z,5.80
2023-04-07T06:55:07.822Z,5.00
2023-04-07T06:59:14.539Z,4.75
2023-04-07T07:03:21.508Z,5.38
2023-04-07T07:07:28.295Z,5.05
2023-04-07T07:11:35.050Z,4.97
2023-04-07T07:15:41.796Z,5.30
2023-04-07T07:19:48.479Z,4.40
2023-04-07T07:23:55.325Z,3.25
2023-04-07T07:28:02.041Z,3.88
2023-04-07T07:32:08.722Z,3.80
2023-04-07T07:36:15.450Z,3.20
2023-04-07T07:40:22.282Z,2.05
2023-04-07T07:44:30.829Z,2.55
2023-04-07T07:48:39.247Z,2.25
2023-04-07T07:52:46.187Z,2.40
2023-04-07T07:56:52.949Z,1.38
2023-04-07T08:00:59.652Z,1.80
2023-04-07T08:05:06.930Z,1.58
2023-04-07T08:09:13.692Z,1.90
2023-04-07T08:13:20.365Z,1.35
2023-04-07T08:17:27.118Z,1.05
2023-04-07T08:21:33.797Z,1.08
2023-04-07T08:25:40.469Z,1.10
2023-04-07T08:29:58.059Z,0.80
2023-04-07T08:34:04.711Z,0.57
2023-04-07T08:38:11.592Z,0.60
2023-04-07T08:42:19.754Z,0.60
2023-04-07T08:46:27.302Z,0.77
2023-04-07T08:50:34.685Z,0.55
2023-04-07T08:54:41.653Z,0.60
2023-04-07T08:58:49.190Z,0.95
2023-04-07T09:02:56.425Z,0.60
2023-04-07T09:07:03.383Z,0.70
2023-04-07T09:11:10.268Z,0.80
2023-04-07T09:15:16.982Z,0.70
2023-04-07T09:19:27.164Z,0.70
2023-04-07T09:23:36.205Z,1.30
2023-04-07T09:28:01.723Z,0.90
2023-04-07T09:32:08.948Z,0.95
2023-04-07T09:36:15.883Z,0.50
2023-04-07T09:40:28.795Z,0.40
2023-04-07T09:44:41.549Z,0.40
2023-04-07T09:48:48.498Z,0.22
2023-04-07T09:52:55.400Z,0.40
2023-04-07T09:57:06.862Z,0.17
2023-04-07T10:01:17.110Z,0.20
2023-04-07T10:05:25.254Z,0.20
2023-04-07T10:09:32.160Z,0.20
2023-04-07T10:13:41.251Z,0.50
2023-04-07T10:17:49.191Z,0.30
2023-04-07T10:21:56.358Z,0.50
2023-04-07T10:26:04.884Z,0.57
2023-04-07T10:30:15.519Z,0.30
2023-04-07T10:34:50.541Z,0.30
2023-04-07T10:39:09.439Z,0.40
2023-04-07T10:43:40.788Z,0.30
2023-04-07T10:48:00.715Z,0.40
2023-04-07T10:52:13.389Z,0.35
2023-04-07T10:56:20.024Z,0.40
2023-04-07T11:00:27.218Z,0.55
2023-04-07T11:04:37.887Z,0.60
2023-04-07T11:08:48.988Z,0.50
2023-04-07T11:13:07.446Z,1.08
2023-04-07T11:17:17.539Z,0.32
2023-04-07T11:21:24.272Z,0.30
2023-04-07T11:25:33.021Z,0.40
2023-04-07T11:29:39.819Z,0.40
2023-04-07T11:33:53.775Z,0.50
2023-04-07T11:38:02.458Z,0.65
2023-04-07T11:42:09.137Z,0.70
2023-04-07T11:46:17.643Z,0.55
2023-04-07T11:50:42.820Z,0.60
2023-04-07T11:54:53.220Z,0.85
2023-04-07T11:59:00.060Z,0.80
2023-04-07T12:03:12.165Z,0.90
2023-04-07T12:07:19.019Z,0.82
2023-04-07T12:11:25.692Z,1.13
2023-04-07T12:15:32.410Z,1.50
2023-04-07T12:19:39.683Z,1.20
2023-04-07T12:23:47.667Z,2.08
2023-04-07T12:27:54.542Z,1.75
2023-04-07T12:32:01.659Z,0.80
2023-04-07T12:36:08.361Z,1.10
2023-04-07T12:40:15.950Z,0.82
2023-04-07T12:44:22.602Z,2.20
2023-04-07T12:48:29.307Z,0.80
2023-04-07T12:52:36.245Z,1.40
2023-04-07T12:56:42.925Z,1.20
2023-04-07T13:00:49.750Z,1.33
2023-04-07T13:04:56.660Z,1.85
2023-04-07T13:09:03.429Z,2.78
2023-04-07T13:13:10.190Z,1.70
2023-04-07T13:17:18.556Z,2.20
2023-04-07T13:25:34.996Z,2.03
2023-04-07T13:29:41.668Z,2.45
2023-04-07T13:33:48.479Z,1.00
2023-04-07T13:37:55.342Z,1.40
2023-04-07T13:42:02.002Z,1.65
2023-04-07T13:46:20.844Z,1.15
2023-04-07T13:50:31.777Z,1.90
2023-04-07T13:54:38.665Z,3.55
2023-04-07T13:58:45.362Z,5.07
2023-04-07T14:02:52.158Z,4.75
2023-04-07T14:06:58.899Z,4.22
2023-04-07T14:11:05.683Z,6.35
2023-04-07T14:15:12.526Z,5.32
2023-04-07T14:19:22.478Z,5.20
2023-04-07T14:23:36.459Z,5.60
2023-04-07T14:27:44.278Z,4.15
2023-04-07T14:31:51.460Z,4.57
2023-04-07T14:35:58.318Z,3.63
2023-04-07T14:40:06.357Z,4.00
2023-04-07T14:44:13.053Z,4.38
2023-04-07T14:48:19.711Z,3.33
2023-04-07T14:52:27.197Z,3.75
2023-04-07T14:56:33.938Z,3.60
2023-04-07T15:00:40.679Z,4.03
2023-04-07T15:04:47.403Z,3.13
2023-04-07T15:08:54.221Z,3.85
2023-04-07T15:13:01.124Z,3.50
2023-04-07T15:17:07.784Z,2.88
2023-04-07T15:21:15.626Z,3.13
2023-04-07T15:25:23.129Z,3.10
2023-04-07T15:29:29.862Z,3.60
2023-04-07T15:33:37.996Z,2.92
2023-04-07T15:37:44.660Z,2.05
2023-04-07T15:41:51.285Z,2.28
2023-04-07T15:45:57.927Z,2.78
2023-04-07T15:50:05.152Z,2.75
2023-04-07T15:54:11.824Z,1.98
2023-04-07T15:58:18.531Z,2.08
2023-04-07T16:02:25.424Z,1.92
2023-04-07T16:06:32.335Z,1.73
2023-04-07T16:10:39.003Z,1.98
2023-04-07T16:14:45.768Z,2.05
2023-04-07T16:18:52.580Z,1.98
2023-04-07T16:22:59.241Z,2.20
2023-04-07T16:27:05.952Z,1.92
2023-04-07T16:31:12.671Z,1.75
2023-04-07T16:35:19.446Z,1.75
2023-04-07T16:39:27.575Z,2.35
2023-04-07T16:43:36.086Z,2.17
2023-04-07T16:47:44.474Z,2.30
2023-04-07T16:51:51.247Z,2.25
2023-04-07T16:55:57.926Z,2.38
2023-04-07T17:00:05.867Z,2.38
2023-04-07T17:04:12.612Z,2.55
2023-04-07T17:08:19.342Z,2.97
2023-04-07T17:12:26.357Z,2.88
2023-04-07T17:16:33.121Z,3.00
2023-04-07T17:20:39.780Z,3.03
2023-04-07T17:24:47.011Z,3.20
2023-04-07T17:28:53.734Z,3.53
2023-04-07T17:33:00.580Z,2.75
2023-04-07T17:37:07.195Z,2.22
2023-04-07T17:41:13.948Z,2.67
2023-04-07T17:45:20.680Z,3.35
2023-04-07T17:53:50.274Z,2.92
2023-04-07T17:58:00.916Z,3.33
2023-04-07T18:02:10.687Z,3.50
2023-04-07T18:06:21.035Z,3.40
2023-04-07T18:10:32.364Z,4.50
2023-04-07T18:14:39.906Z,4.35
2023-04-07T18:18:46.570Z,3.70
2023-04-07T18:22:53.995Z,3.58
2023-04-07T18:27:01.268Z,2.35
2023-04-07T18:31:08.398Z,3.67
2023-04-07T18:35:15.537Z,1.00
2023-04-07T18:39:22.255Z,2.90
2023-04-07T18:43:29.065Z,10.20
2023-04-07T18:47:35.753Z,5.50
2023-04-07T18:51:44.492Z,5.95
2023-04-07T18:55:51.707Z,2.17
2023-04-07T18:59:58.453Z,1.00
2023-04-07T19:04:05.699Z,1.70
2023-04-07T19:08:12.482Z,1.05
2023-04-07T19:12:19.269Z,0.95
2023-04-07T19:16:26.167Z,0.60
2023-04-07T19:20:33.904Z,1.13
2023-04-07T19:24:40.839Z,1.00
2023-04-07T19:28:48.335Z,1.00
2023-04-07T19:32:55.238Z,3.58
2023-04-07T19:37:02.065Z,1.33
2023-04-07T19:41:08.766Z,1.00
2023-04-07T19:45:15.448Z,0.82
2023-04-07T19:49:22.112Z,0.82
2023-04-07T19:53:29.336Z,1.00
2023-04-07T19:57:36.181Z,1.23
2023-04-07T20:01:43.013Z,0.82
2023-04-07T20:05:52.825Z,2.50
2023-04-07T20:09:59.940Z,3.60
2023-04-07T20:14:06.605Z,6.22
2023-04-07T20:18:13.339Z,4.25
2023-04-07T20:22:20.402Z,5.72
2023-04-07T20:26:27.189Z,5.18
2023-04-07T20:30:33.923Z,4.43
2023-04-07T20:34:40.738Z,6.75
2023-04-07T20:38:48.039Z,3.35
2023-04-07T20:42:55.082Z,2.42
2023-04-07T20:47:12.474Z,1.40
2023-04-07T20:51:19.155Z,3.42
2023-04-07T20:55:26.075Z,2.03
2023-04-07T20:59:32.775Z,1.48
2023-04-07T21:03:39.526Z,0.85
2023-04-07T21:07:46.373Z,1.13
2023-04-07T21:11:53.259Z,0.68
2023-04-07T21:16:01.273Z,0.70
2023-04-07T21:20:08.672Z,0.70
2023-04-07T21:24:15.327Z,0.60
2023-04-07T21:28:21.964Z,1.00
2023-04-07T21:32:28.636Z,0.95
2023-04-07T21:36:35.302Z,1.05
2023-04-07T21:40:42.007Z,1.45
2023-04-07T21:44:49.077Z,1.70
2023-04-07T21:48:55.799Z,0.90
2023-04-07T21:53:02.593Z,0.95
2023-04-07T21:57:09.281Z,1.85
2023-04-07T22:01:17.496Z,1.20
2023-04-07T22:05:24.391Z,1.48
2023-04-07T22:09:31.125Z,2.35
2023-04-07T22:13:37.961Z,2.22
2023-04-07T22:17:44.693Z,3.40
2023-04-07T22:21:51.386Z,3.65
2023-04-07T22:25:58.103Z,2.60
2023-04-07T22:30:05.170Z,1.58
2023-04-07T22:34:11.821Z,1.48
2023-04-07T22:38:18.525Z,1.90
2023-04-07T22:42:25.302Z,1.75
2023-04-07T22:46:32.016Z,1.17
2023-04-07T22:50:38.796Z,1.45
2023-04-07T22:54:45.897Z,1.67
2023-04-07T22:58:52.532Z,2.20
2023-04-07T23:02:59.355Z,1.73
2023-04-07T23:07:06.139Z,1.98
2023-04-07T23:11:12.787Z,2.10
2023-04-07T23:15:19.538Z,2.92
2023-04-07T23:19:26.340Z,2.65
2023-04-07T23:23:35.699Z,1.50
2023-04-07T23:27:42.892Z,1.40
2023-04-07T23:31:49.571Z,1.88
2023-04-07T23:35:56.235Z,1.20
2023-04-07T23:40:02.982Z,1.50
2023-04-07T23:44:09.665Z,1.83
2023-04-07T23:48:16.430Z,1.80
2023-04-07T23:52:23.482Z,2.03
2023-04-07T23:56:30.167Z,2.20
